createdAt,value
2017-11-16T00:00:34.812Z,101714.63
2017-11-16T00:03:03.052Z,101715.62
2017-11-16T00:05:34.831Z,101706.39
2017-11-16T00:08:01.653Z,101709.84
2017-11-16T00:10:29.234Z,101707.21
2017-11-16T00:13:01.504Z,101709.30
2017-11-16T00:15:29.060Z,101714.17
2017-11-16T00:18:02.101Z,101701.00
2017-11-16T00:20:28.945Z,101692.88
2017-11-16T00:22:57.725Z,101692.55
2017-11-16T00:25:31.471Z,101692.55
2017-11-16T00:27:59.128Z,101695.45
2017-11-16T00:30:32.304Z,101688.86
2017-11-16T00:32:59.230Z,101693.65
2017-11-16T00:35:31.260Z,101689.30
2017-11-16T00:38:02.085Z,101687.60
2017-11-16T00:40:29.035Z,101682.45
2017-11-16T00:43:02.366Z,101680.70
2017-11-16T00:45:29.445Z,101683.82
2017-11-16T00:47:57.048Z,101674.92
2017-11-16T00:50:24.797Z,101676.25
2017-11-16T00:52:52.294Z,101675.38
2017-11-16T00:55:19.159Z,101677.51
2017-11-16T00:57:46.415Z,101673.01
2017-11-16T01:00:19.407Z,101669.44
2017-11-16T01:02:47.536Z,101667.26
2017-11-16T01:05:19.818Z,101659.78
2017-11-16T01:07:53.337Z,101657.31
2017-11-16T01:10:21.097Z,101657.37
2017-11-16T01:12:47.985Z,101654.90
2017-11-16T01:15:14.804Z,101655.83
2017-11-16T01:17:47.991Z,101652.70
2017-11-16T01:20:20.646Z,101649.41
2017-11-16T01:22:47.498Z,101654.69
2017-11-16T01:25:14.328Z,101651.44
2017-11-16T01:27:41.187Z,101662.86
2017-11-16T01:30:08.060Z,101658.97
2017-11-16T01:32:34.869Z,101657.65
2017-11-16T01:35:02.466Z,101661.81
2017-11-16T01:37:29.301Z,101658.70
2017-11-16T01:39:56.907Z,101653.48
2017-11-16T01:42:23.784Z,101646.89
2017-11-16T01:44:50.655Z,101647.66
2017-11-16T01:47:17.481Z,101645.03
2017-11-16T01:49:45.040Z,101639.66
2017-11-16T01:52:12.624Z,101639.93
2017-11-16T01:54:40.213Z,101647.00
2017-11-16T01:57:07.815Z,101640.91
2017-11-16T01:59:34.652Z,101633.13
2017-11-16T02:02:02.346Z,101636.31
2017-11-16T02:04:29.279Z,101631.14
2017-11-16T02:06:56.866Z,101630.58
2017-11-16T02:09:24.455Z,101632.95
2017-11-16T02:11:52.020Z,101631.52
2017-11-16T02:14:19.604Z,101635.36
2017-11-16T02:16:47.200Z,101640.84
2017-11-16T02:19:14.110Z,101644.13
2017-11-16T02:21:41.027Z,101646.94
2017-11-16T02:24:07.907Z,101642.50
2017-11-16T02:26:34.774Z,101637.28
2017-11-16T02:29:01.699Z,101643.53
2017-11-16T02:31:29.327Z,101638.77
2017-11-16T02:33:56.233Z,101633.00
2017-11-16T02:36:23.848Z,101634.33
2017-11-16T02:38:50.743Z,101631.41
2017-11-16T02:41:17.645Z,101636.94
2017-11-16T02:43:44.540Z,101638.09
2017-11-16T02:46:11.436Z,101631.80
2017-11-16T02:48:38.330Z,101629.66
2017-11-16T02:51:05.220Z,101634.81
2017-11-16T02:53:32.820Z,101633.99
2017-11-16T02:55:59.757Z,101635.36
2017-11-16T02:58:26.659Z,101641.13
2017-11-16T03:00:53.546Z,101638.88
2017-11-16T03:03:21.191Z,101638.11
2017-11-16T03:05:48.032Z,101643.43
2017-11-16T03:08:14.857Z,101644.91
2017-11-16T03:10:42.448Z,101639.91
2017-11-16T03:13:09.320Z,101641.08
2017-11-16T03:15:36.172Z,101640.80
2017-11-16T03:18:03.025Z,101645.52
2017-11-16T03:20:29.868Z,101647.70
2017-11-16T03:22:57.466Z,101642.17
2017-11-16T03:25:24.354Z,101637.84
2017-11-16T03:27:51.252Z,101640.97
2017-11-16T03:30:18.134Z,101640.47
2017-11-16T03:32:45.745Z,101639.16
2017-11-16T03:35:13.381Z,101639.20
2017-11-16T03:37:40.315Z,101637.41
2017-11-16T03:40:07.196Z,101641.95
2017-11-16T03:42:34.043Z,101642.18
2017-11-16T03:45:00.929Z,101628.72
2017-11-16T03:47:27.778Z,101635.38
2017-11-16T03:49:54.643Z,101632.89
2017-11-16T03:52:21.537Z,101631.14
2017-11-16T03:54:49.129Z,101634.28
2017-11-16T03:57:15.969Z,101633.02
2017-11-16T03:59:43.591Z,101632.91
2017-11-16T04:02:10.432Z,101635.32
2017-11-16T04:04:37.276Z,101639.14
2017-11-16T04:07:04.863Z,101638.88
2017-11-16T04:09:31.648Z,101634.77
2017-11-16T04:11:58.564Z,101633.99
2017-11-16T04:14:26.192Z,101625.77
2017-11-16T04:16:53.077Z,101629.70
2017-11-16T04:19:19.914Z,101629.94
2017-11-16T04:21:46.786Z,101626.16
2017-11-16T04:24:13.620Z,101633.62
2017-11-16T04:26:40.496Z,101624.50
2017-11-16T04:29:07.348Z,101617.91
2017-11-16T04:31:34.277Z,101623.91
2017-11-16T04:34:01.879Z,101617.86
2017-11-16T04:36:28.743Z,101611.78
2017-11-16T04:38:55.592Z,101612.22
2017-11-16T04:41:22.424Z,101611.67
2017-11-16T04:43:51.356Z,101613.63
2017-11-16T04:46:18.276Z,101605.69
2017-11-16T04:48:45.147Z,101600.03
2017-11-16T04:51:11.986Z,101604.98
2017-11-16T04:53:38.826Z,101598.98
2017-11-16T04:56:05.654Z,101598.12
2017-11-16T04:58:33.236Z,101589.88
2017-11-16T05:01:00.831Z,101590.70
2017-11-16T05:03:27.704Z,101600.52
2017-11-16T05:05:54.550Z,101601.30
2017-11-16T05:08:21.392Z,101597.07
2017-11-16T05:10:49.051Z,101594.27
2017-11-16T05:13:15.873Z,101595.86
2017-11-16T05:15:42.681Z,101596.23
2017-11-16T05:18:09.555Z,101597.84
2017-11-16T05:20:37.164Z,101600.56
2017-11-16T05:23:04.073Z,101599.92
2017-11-16T05:25:30.922Z,101601.08
2017-11-16T05:27:57.783Z,101595.97
2017-11-16T05:30:24.649Z,101594.32
2017-11-16T05:32:51.504Z,101597.72
2017-11-16T05:35:18.369Z,101592.34
2017-11-16T05:37:45.208Z,101601.41
2017-11-16T05:40:12.043Z,101609.77
2017-11-16T05:42:39.629Z,101616.86
2017-11-16T05:45:06.476Z,101609.13
2017-11-16T05:47:34.392Z,101609.36
2017-11-16T05:50:01.253Z,101612.34
2017-11-16T05:52:28.124Z,101609.02
2017-11-16T05:54:54.965Z,101615.77
2017-11-16T05:57:21.899Z,101612.35
2017-11-16T05:59:50.644Z,101613.85
2017-11-16T06:02:17.550Z,101612.58
2017-11-16T06:04:44.417Z,101609.30
2017-11-16T06:07:12.005Z,101611.80
2017-11-16T06:09:39.619Z,101608.47
2017-11-16T06:12:06.564Z,101604.96
2017-11-16T06:14:33.435Z,101602.72
2017-11-16T06:17:00.302Z,101604.20
2017-11-16T06:19:27.154Z,101602.39
2017-11-16T06:21:53.982Z,101602.82
2017-11-16T06:24:20.841Z,101601.47
2017-11-16T06:26:47.678Z,101595.42
2017-11-16T06:29:14.554Z,101602.78
2017-11-16T06:31:41.424Z,101599.31
2017-11-16T06:34:08.240Z,101600.89
2017-11-16T06:36:35.796Z,101602.55
2017-11-16T06:39:02.782Z,101601.67
2017-11-16T06:54:22.574Z,101609.89
2017-11-16T06:56:49.421Z,101611.97
2017-11-16T06:59:16.475Z,101614.58
2017-11-16T07:01:43.311Z,101619.77
2017-11-16T07:04:10.145Z,101625.66
2017-11-16T07:06:37.733Z,101621.06
2017-11-16T07:09:05.296Z,101628.52
2017-11-16T07:11:32.846Z,101623.05
2017-11-16T07:14:00.243Z,101618.94
2017-11-16T07:16:27.202Z,101614.44
2017-11-16T07:18:54.020Z,101612.87
2017-11-16T07:21:20.865Z,101616.03
2017-11-16T07:23:47.693Z,101613.61
2017-11-16T07:26:14.515Z,101617.01
2017-11-16T07:28:41.403Z,101609.28
2017-11-16T07:31:08.225Z,101610.16
2017-11-16T07:33:36.161Z,101616.59
2017-11-16T07:36:03.825Z,101618.20
2017-11-16T07:38:30.678Z,101613.84
2017-11-16T07:40:57.588Z,101609.18
2017-11-16T07:43:24.508Z,101610.05
2017-11-16T07:45:51.402Z,101611.52
2017-11-16T07:48:18.241Z,101614.59
2017-11-16T07:50:45.109Z,101617.99
2017-11-16T07:53:12.705Z,101619.55
2017-11-16T07:55:40.281Z,101622.58
2017-11-16T07:58:07.850Z,101626.02
2017-11-16T08:00:35.456Z,101623.27
2017-11-16T08:03:02.291Z,101628.66
2017-11-16T08:05:30.546Z,101637.19
2017-11-16T08:07:57.498Z,101642.27
2017-11-16T08:10:25.086Z,101643.19
2017-11-16T08:12:51.909Z,101643.39
2017-11-16T08:15:18.743Z,101651.58
2017-11-16T08:17:46.339Z,101649.72
2017-11-16T08:20:13.137Z,101648.56
2017-11-16T08:22:39.939Z,101652.03
2017-11-16T08:25:07.526Z,101656.80
2017-11-16T08:27:35.099Z,101656.75
2017-11-16T08:30:02.721Z,101668.56
2017-11-16T08:32:29.539Z,101678.21
2017-11-16T08:34:56.407Z,101686.05
2017-11-16T08:37:24.025Z,101679.99
2017-11-16T08:39:50.875Z,101679.50
2017-11-16T08:42:17.726Z,101687.45
2017-11-16T08:44:44.632Z,101695.76
2017-11-16T08:47:11.510Z,101683.87
2017-11-16T08:49:38.419Z,101679.46
2017-11-16T08:52:05.353Z,101684.95
2017-11-16T08:54:33.032Z,101690.08
2017-11-16T08:57:00.693Z,101688.77
2017-11-16T08:59:27.578Z,101686.12
2017-11-16T09:01:55.194Z,101685.95
2017-11-16T09:04:22.137Z,101687.85
2017-11-16T09:06:49.076Z,101689.75
2017-11-16T09:09:16.705Z,101681.88
2017-11-16T09:11:43.624Z,101686.27
2017-11-16T09:14:11.262Z,101689.84
2017-11-16T09:16:38.215Z,101684.80
2017-11-16T09:19:05.425Z,101682.54
2017-11-16T09:21:32.359Z,101689.41
2017-11-16T09:23:59.231Z,101676.55
2017-11-16T09:26:26.237Z,101677.95
2017-11-16T09:28:53.172Z,101670.81
2017-11-16T09:31:20.800Z,101660.12
2017-11-16T09:33:47.629Z,101661.05
2017-11-16T09:36:15.251Z,101662.47
2017-11-16T09:38:42.147Z,101666.22
2017-11-16T09:41:09.077Z,101661.38
2017-11-16T09:43:35.950Z,101655.52
2017-11-16T09:46:03.627Z,101654.52
2017-11-16T09:48:30.453Z,101645.19
2017-11-16T09:50:57.258Z,101645.19
2017-11-16T09:53:24.121Z,101639.74
2017-11-16T09:55:50.966Z,101641.28
2017-11-16T09:58:17.813Z,101634.19
2017-11-16T10:00:44.685Z,101638.41
2017-11-16T10:03:11.529Z,101642.68
2017-11-16T10:05:38.345Z,101640.86
2017-11-16T10:08:05.165Z,101634.77
2017-11-16T10:10:32.005Z,101634.11
2017-11-16T10:12:58.851Z,101628.83
2017-11-16T10:15:26.394Z,101629.59
2017-11-16T10:17:53.218Z,101615.39
2017-11-16T10:20:20.093Z,101617.55
2017-11-16T10:22:46.900Z,101612.14
2017-11-16T10:25:13.707Z,101611.44
2017-11-16T10:27:40.624Z,101608.27
2017-11-16T10:30:08.250Z,101601.92
2017-11-16T10:32:35.129Z,101597.91
2017-11-16T10:35:01.966Z,101593.78
2017-11-16T10:37:28.825Z,101602.05
2017-11-16T10:39:55.711Z,101596.55
2017-11-16T10:42:22.597Z,101598.11
2017-11-16T10:44:49.459Z,101591.00
2017-11-16T10:47:16.354Z,101582.64
2017-11-16T10:49:43.229Z,101587.36
2017-11-16T10:52:11.021Z,101588.55
2017-11-16T10:54:43.232Z,101583.66
2017-11-16T10:57:10.151Z,101588.28
2017-11-16T10:59:37.060Z,101586.10
2017-11-16T11:02:04.042Z,101584.19
2017-11-16T11:04:31.005Z,101591.11
2017-11-16T11:06:57.820Z,101581.74
2017-11-16T11:09:24.733Z,101586.84
2017-11-16T11:11:52.484Z,101586.20
2017-11-16T11:14:19.633Z,101590.39
2017-11-16T11:16:52.525Z,101593.92
2017-11-16T11:19:19.751Z,101587.27
2017-11-16T11:21:47.030Z,101588.28
2017-11-16T11:24:14.714Z,101586.33
2017-11-16T11:26:46.677Z,101580.23
2017-11-16T11:29:14.542Z,101587.47
2017-11-16T11:31:41.675Z,101584.56
2017-11-16T11:34:08.492Z,101592.36
2017-11-16T11:36:36.342Z,101600.56
2017-11-16T11:39:03.517Z,101591.78
2017-11-16T11:41:36.231Z,101593.17
2017-11-16T11:44:03.059Z,101590.77
2017-11-16T11:46:35.871Z,101589.63
2017-11-16T11:49:15.204Z,101584.80
2017-11-16T11:51:43.058Z,101585.73
2017-11-16T11:54:15.105Z,101588.88
2017-11-16T11:56:53.450Z,101578.47
2017-11-16T11:59:21.120Z,101578.77
2017-11-16T12:01:48.672Z,101572.11
2017-11-16T12:04:15.841Z,101578.09
2017-11-16T12:06:43.560Z,101573.23
2017-11-16T12:09:12.051Z,101571.45
2017-11-16T12:11:39.940Z,101576.63
2017-11-16T12:14:07.798Z,101576.08
2017-11-16T12:16:35.877Z,101572.35
2017-11-16T12:19:08.856Z,101572.02
2017-11-16T12:21:38.489Z,101568.94
2017-11-16T12:24:06.721Z,101567.53
2017-11-16T12:26:34.913Z,101568.04
2017-11-16T12:29:02.028Z,101567.30
2017-11-16T12:31:29.216Z,101571.12
2017-11-16T12:34:01.225Z,101578.25
2017-11-16T12:36:34.196Z,101573.50
2017-11-16T12:39:06.217Z,101568.89
2017-11-16T12:41:34.214Z,101567.70
2017-11-16T12:44:02.314Z,101568.58
2017-11-16T12:46:32.229Z,101565.80
2017-11-16T12:49:04.911Z,101560.80
2017-11-16T12:51:34.927Z,101547.39
2017-11-16T12:54:08.153Z,101539.24
2017-11-16T12:56:36.635Z,101535.41
2017-11-16T12:59:05.269Z,101531.02
2017-11-16T13:01:32.902Z,101519.37
2017-11-16T13:04:00.420Z,101528.53
2017-11-16T13:06:28.009Z,101525.82
2017-11-16T13:08:54.960Z,101521.12
2017-11-16T13:11:21.913Z,101516.94
2017-11-16T13:13:49.672Z,101516.07
2017-11-16T13:16:22.233Z,101512.53
2017-11-16T13:18:49.272Z,101506.44
2017-11-16T13:21:21.508Z,101515.53
2017-11-16T13:23:49.661Z,101506.80
2017-11-16T13:26:22.219Z,101516.70
2017-11-16T13:28:49.252Z,101516.26
2017-11-16T13:31:16.708Z,101505.61
2017-11-16T13:33:43.716Z,101506.66
2017-11-16T13:36:10.558Z,101502.23
2017-11-16T13:38:42.780Z,101507.94
2017-11-16T13:41:10.471Z,101506.12
2017-11-16T13:43:37.393Z,101509.59
2017-11-16T13:46:05.454Z,101505.87
2017-11-16T13:48:32.494Z,101510.89
2017-11-16T13:50:59.482Z,101502.34
2017-11-16T13:53:32.709Z,101499.27
2017-11-16T13:56:02.677Z,101500.73
2017-11-16T13:58:29.831Z,101497.34
2017-11-16T14:01:01.960Z,101493.00
2017-11-16T14:03:34.257Z,101487.50
2017-11-16T14:06:02.273Z,101490.72
2017-11-16T14:08:29.459Z,101489.42
2017-11-16T14:10:56.438Z,101489.49
2017-11-16T14:13:24.084Z,101481.48
2017-11-16T14:15:51.033Z,101483.24
2017-11-16T14:18:18.047Z,101477.03
2017-11-16T14:20:45.821Z,101479.66
2017-11-16T14:23:15.986Z,101479.22
2017-11-16T14:25:49.268Z,101469.98
2017-11-16T14:28:16.137Z,101475.41
2017-11-16T14:30:46.059Z,101470.64
2017-11-16T14:33:12.968Z,101471.14
2017-11-16T14:35:40.005Z,101470.69
2017-11-16T14:38:12.200Z,101472.60
2017-11-16T14:40:44.477Z,101471.34
2017-11-16T14:43:11.847Z,101474.27
2017-11-16T14:45:38.811Z,101471.63
2017-11-16T14:48:06.270Z,101470.31
2017-11-16T14:50:33.844Z,101470.61
2017-11-16T14:53:01.424Z,101468.95
2017-11-16T14:55:28.905Z,101466.82
2017-11-16T14:57:56.545Z,101466.64
2017-11-16T15:00:24.181Z,101468.05
2017-11-16T15:02:51.082Z,101461.60
2017-11-16T15:05:18.037Z,101464.74
2017-11-16T15:07:52.202Z,101463.80
2017-11-16T15:10:21.135Z,101464.44
2017-11-16T15:12:49.738Z,101460.94
2017-11-16T15:15:22.198Z,101462.74
2017-11-16T15:17:49.105Z,101467.13
2017-11-16T15:20:15.929Z,101462.34
2017-11-16T15:22:42.905Z,101464.09
2017-11-16T15:25:10.556Z,101469.61
2017-11-16T15:27:43.200Z,101471.28
2017-11-16T15:30:16.042Z,101481.50
2017-11-16T15:32:48.184Z,101478.78
2017-11-16T15:35:15.074Z,101477.80
2017-11-16T15:37:42.315Z,101483.83
2017-11-16T15:40:14.416Z,101474.22
2017-11-16T15:42:43.219Z,101472.02
2017-11-16T15:45:10.578Z,101465.41
2017-11-16T15:47:37.843Z,101465.42
2017-11-16T15:50:13.101Z,101463.95
2017-11-16T15:52:45.245Z,101464.83
2017-11-16T15:55:12.311Z,101468.66
2017-11-16T15:57:39.582Z,101465.91
2017-11-16T16:00:06.820Z,101461.75
2017-11-16T16:02:33.927Z,101463.38
2017-11-16T16:05:05.184Z,101459.98
2017-11-16T16:07:33.056Z,101464.81
2017-11-16T16:10:00.178Z,101465.11
2017-11-16T16:12:28.261Z,101474.19
2017-11-16T16:14:55.331Z,101477.10
2017-11-16T16:17:24.160Z,101485.98
2017-11-16T16:19:58.418Z,101481.55
2017-11-16T16:22:30.581Z,101474.27
2017-11-16T16:24:57.403Z,101478.67
2017-11-16T16:27:25.024Z,101483.94
2017-11-16T16:30:00.647Z,101482.92
2017-11-16T16:32:31.594Z,101489.72
2017-11-16T16:35:01.489Z,101482.30
2017-11-16T16:37:31.218Z,101485.23
2017-11-16T16:39:59.055Z,101490.01
2017-11-16T16:42:27.087Z,101489.84
2017-11-16T16:44:55.469Z,101487.72
2017-11-16T16:47:22.609Z,101487.09
2017-11-16T16:49:57.051Z,101489.28
2017-11-16T16:52:24.220Z,101494.04
2017-11-16T16:54:56.351Z,101497.71
2017-11-16T16:57:25.244Z,101495.00
2017-11-16T16:59:53.421Z,101489.23
2017-11-16T17:02:20.424Z,101486.14
2017-11-16T17:04:48.074Z,101479.66
2017-11-16T17:07:15.579Z,101479.09
2017-11-16T17:09:43.206Z,101477.10
2017-11-16T17:12:11.037Z,101477.84
2017-11-16T17:14:37.872Z,101475.57
2017-11-16T17:17:04.812Z,101476.59
2017-11-16T17:19:32.056Z,101480.76
2017-11-16T17:21:59.080Z,101480.53
2017-11-16T17:24:27.079Z,101480.13
2017-11-16T17:26:54.011Z,101481.88
2017-11-16T17:29:21.437Z,101483.17
2017-11-16T17:31:49.358Z,101493.23
2017-11-16T17:34:20.168Z,101494.55
2017-11-16T17:36:47.320Z,101497.14
2017-11-16T17:39:14.616Z,101498.59
2017-11-16T17:41:41.629Z,101499.84
2017-11-16T17:44:13.736Z,101500.04
2017-11-16T17:46:41.111Z,101497.20
2017-11-16T17:49:14.470Z,101496.75
2017-11-16T17:51:41.677Z,101495.78
2017-11-16T17:54:11.647Z,101497.27
2017-11-16T17:56:39.720Z,101502.16
2017-11-16T17:59:07.471Z,101510.02
2017-11-16T18:01:35.160Z,101498.57
2017-11-16T18:04:02.089Z,101494.70
2017-11-16T18:06:28.921Z,101502.16
2017-11-16T18:08:55.782Z,101503.75
2017-11-16T18:11:23.399Z,101506.95
2017-11-16T18:13:50.245Z,101505.77
2017-11-16T18:16:17.094Z,101511.09
2017-11-16T18:18:43.949Z,101510.14
2017-11-16T18:21:11.515Z,101513.17
2017-11-16T18:23:39.095Z,101512.66
2017-11-16T18:26:06.720Z,101518.13
2017-11-16T18:28:33.571Z,101524.16
2017-11-16T18:31:00.418Z,101522.20
2017-11-16T18:33:27.318Z,101524.61
2017-11-16T18:35:54.175Z,101532.95
2017-11-16T18:38:21.009Z,101529.20
2017-11-16T18:40:47.867Z,101523.41
2017-11-16T18:43:14.683Z,101516.73
2017-11-16T18:45:41.557Z,101517.25
2017-11-16T18:48:09.217Z,101532.72
2017-11-16T18:50:36.033Z,101527.36
2017-11-16T18:53:02.871Z,101527.00
2017-11-16T18:55:30.500Z,101528.13
2017-11-16T18:57:57.382Z,101535.05
2017-11-16T19:00:24.344Z,101545.40
2017-11-16T19:02:51.996Z,101545.82
2017-11-16T19:05:19.495Z,101549.42
2017-11-16T19:07:47.160Z,101549.36
2017-11-16T19:10:14.038Z,101542.70
2017-11-16T19:12:41.135Z,101548.36
2017-11-16T19:15:08.166Z,101552.39
2017-11-16T19:17:36.549Z,101551.81
2017-11-16T19:20:03.461Z,101550.85
2017-11-16T19:22:31.097Z,101550.05
2017-11-16T19:24:59.931Z,101549.19
2017-11-16T19:27:28.662Z,101551.92
2017-11-16T19:29:57.243Z,101554.21
2017-11-16T19:32:25.940Z,101551.20
2017-11-16T19:34:54.932Z,101556.78
2017-11-16T19:37:23.828Z,101557.16
2017-11-16T19:39:52.788Z,101554.58
2017-11-16T19:42:21.505Z,101564.61
2017-11-16T19:44:50.729Z,101561.92
2017-11-16T19:47:19.577Z,101554.00
2017-11-16T19:49:47.679Z,101547.92
2017-11-16T19:52:16.783Z,101550.56
2017-11-16T19:54:45.689Z,101552.77
2017-11-16T19:57:14.507Z,101557.48
2017-11-16T19:59:43.215Z,101555.41
2017-11-16T20:02:12.052Z,101552.44
2017-11-16T20:04:40.463Z,101547.47
2017-11-16T20:07:08.756Z,101547.03
2017-11-16T20:09:38.315Z,101558.03
2017-11-16T20:12:06.919Z,101553.70
2017-11-16T20:14:35.505Z,101554.56
2017-11-16T20:17:04.407Z,101558.73
2017-11-16T20:19:33.153Z,101555.14
2017-11-16T20:22:01.637Z,101556.95
2017-11-16T20:24:30.678Z,101560.16
2017-11-16T20:26:59.524Z,101560.66
2017-11-16T20:29:28.193Z,101561.49
2017-11-16T20:31:56.852Z,101565.88
2017-11-16T20:34:24.868Z,101561.19
2017-11-16T20:50:47.927Z,101563.67
2017-11-16T20:53:18.771Z,101570.42
2017-11-16T20:55:47.681Z,101575.44
2017-11-16T20:58:16.601Z,101575.44
2017-11-16T21:00:45.120Z,101576.05
2017-11-16T21:03:13.673Z,101575.55
2017-11-16T21:05:42.194Z,101571.16
2017-11-16T21:08:10.963Z,101576.19
2017-11-16T21:10:39.102Z,101571.41
2017-11-16T21:13:06.138Z,101570.41
2017-11-16T21:15:34.352Z,101572.28
2017-11-16T21:18:02.115Z,101565.26
2017-11-16T21:20:28.990Z,101560.81
2017-11-16T21:22:56.082Z,101571.48
2017-11-16T21:25:23.004Z,101566.08
2017-11-16T21:27:49.892Z,101571.47
2017-11-16T21:30:16.940Z,101569.27
2017-11-16T21:32:43.797Z,101571.73
2017-11-16T21:35:10.657Z,101569.65
2017-11-16T21:37:37.588Z,101580.89
2017-11-16T21:40:04.474Z,101576.63
2017-11-16T21:42:31.294Z,101577.69
2017-11-16T21:44:58.167Z,101578.33
2017-11-16T21:47:25.045Z,101574.61
2017-11-16T21:49:52.585Z,101567.89
2017-11-16T21:52:19.437Z,101567.77
2017-11-16T21:54:46.269Z,101564.64
2017-11-16T21:57:13.107Z,101568.91
2017-11-16T21:59:41.198Z,101569.66
2017-11-16T22:02:08.131Z,101574.48
2017-11-16T22:04:35.067Z,101577.11
2017-11-16T22:07:01.894Z,101575.82
2017-11-16T22:09:29.490Z,101574.50
2017-11-16T22:11:56.522Z,101575.66
2017-11-16T22:14:24.137Z,101574.30
2017-11-16T22:16:51.027Z,101573.23
2017-11-16T22:19:17.911Z,101575.41
2017-11-16T22:21:45.293Z,101574.80
2017-11-16T22:24:12.128Z,101574.67
2017-11-16T22:26:39.168Z,101573.55
2017-11-16T22:29:06.029Z,101574.42
2017-11-16T22:31:32.907Z,101573.67
2017-11-16T22:34:00.574Z,101576.30
2017-11-16T22:36:27.487Z,101578.08
2017-11-16T22:38:54.328Z,101586.12
2017-11-16T22:41:21.257Z,101576.92
2017-11-16T22:43:48.433Z,101577.82
2017-11-16T22:46:15.356Z,101576.88
2017-11-16T22:48:42.208Z,101580.51
2017-11-16T22:51:09.113Z,101588.42
2017-11-16T22:53:35.978Z,101589.67
2017-11-16T22:56:03.065Z,101592.56
2017-11-16T22:58:29.910Z,101601.16
2017-11-16T23:00:56.749Z,101599.80
2017-11-16T23:03:23.556Z,101603.63
2017-11-16T23:05:50.370Z,101596.92
2017-11-16T23:08:17.197Z,101599.81
2017-11-16T23:10:44.048Z,101596.16
2017-11-16T23:13:10.877Z,101595.84
2017-11-16T23:15:39.519Z,101580.38
2017-11-16T23:18:09.323Z,101580.31
2017-11-16T23:20:36.790Z,101578.20
2017-11-16T23:23:03.655Z,101584.28
2017-11-16T23:25:30.474Z,101580.39
2017-11-16T23:27:57.293Z,101581.89
2017-11-16T23:30:24.121Z,101587.42
2017-11-16T23:32:50.954Z,101588.67
2017-11-16T23:35:17.788Z,101586.92
2017-11-16T23:37:44.610Z,101587.86
2017-11-16T23:40:11.417Z,101587.44
2017-11-16T23:42:38.229Z,101591.12
2017-11-16T23:45:05.103Z,101585.59
2017-11-16T23:47:32.244Z,101587.30
2017-11-16T23:49:59.564Z,101591.12
2017-11-16T23:52:27.109Z,101595.59
2017-11-16T23:54:58.102Z,101591.13
2017-11-16T23:57:25.090Z,101591.75
2017-11-16T23:59:53.956Z,101592.19
